sensor_id;sensor_type;location;lat;lon;timestamp;P1;durP1;ratioP1;P2;durP2;ratioP2
75730;SDS011;64350;47.450;19.124;2023-03-01T05:22:22;17.92;;;8.40;;
75730;SDS011;64350;47.450;19.124;2023-03-01T05:24:48;17.48;;;8.82;;
75730;SDS011;64350;47.450;19.124;2023-03-01T05:27:13;16.43;;;8.13;;
75730;SDS011;64350;47.450;19.124;2023-03-01T05:29:38;17.13;;;8.53;;
75730;SDS011;64350;47.450;19.124;2023-03-01T05:32:04;18.97;;;8.60;;
75730;SDS011;64350;47.450;19.124;2023-03-01T05:34:34;17.47;;;8.70;;
75730;SDS011;64350;47.450;19.124;2023-03-01T05:37:01;17.90;;;8.63;;
75730;SDS011;64350;47.450;19.124;2023-03-01T05:39:27;18.20;;;9.23;;
75730;SDS011;64350;47.450;19.124;2023-03-01T05:41:54;17.42;;;8.85;;
75730;SDS011;64350;47.450;19.124;2023-03-01T05:44:20;17.30;;;8.57;;
75730;SDS011;64350;47.450;19.124;2023-03-01T05:46:46;16.70;;;8.90;;
75730;SDS011;64350;47.450;19.124;2023-03-01T05:49:12;19.23;;;8.40;;
75730;SDS011;64350;47.450;19.124;2023-03-01T05:51:41;18.40;;;8.80;;
75730;SDS011;64350;47.450;19.124;2023-03-01T05:54:07;18.62;;;9.32;;
75730;SDS011;64350;47.450;19.124;2023-03-01T05:56:34;16.83;;;8.38;;
75730;SDS011;64350;47.450;19.124;2023-03-01T05:59:00;18.15;;;8.27;;
75730;SDS011;64350;47.450;19.124;2023-03-01T06:01:26;17.33;;;7.97;;
75730;SDS011;64350;47.450;19.124;2023-03-01T06:03:51;17.58;;;8.63;;
75730;SDS011;64350;47.450;19.124;2023-03-01T06:06:17;16.77;;;8.33;;
75730;SDS011;64350;47.450;19.124;2023-03-01T06:08:43;17.33;;;8.60;;
75730;SDS011;64350;47.450;19.124;2023-03-01T06:11:08;20.30;;;9.13;;
75730;SDS011;64350;47.450;19.124;2023-03-01T06:13:33;17.67;;;8.40;;
75730;SDS011;64350;47.450;19.124;2023-03-01T06:15:59;18.57;;;9.20;;
75730;SDS011;64350;47.450;19.124;2023-03-01T06:18:24;17.70;;;8.67;;
75730;SDS011;64350;47.450;19.124;2023-03-01T06:20:53;18.87;;;9.00;;
75730;SDS011;64350;47.450;19.124;2023-03-01T06:23:19;19.95;;;8.82;;
75730;SDS011;64350;47.450;19.124;2023-03-01T06:25:44;18.70;;;9.20;;
75730;SDS011;64350;47.450;19.124;2023-03-01T06:28:10;15.50;;;7.97;;
75730;SDS011;64350;47.450;19.124;2023-03-01T06:30:35;17.60;;;9.10;;
75730;SDS011;64350;47.450;19.124;2023-03-01T06:33:01;15.97;;;8.80;;
75730;SDS011;64350;47.450;19.124;2023-03-01T06:35:28;17.20;;;8.43;;
75730;SDS011;64350;47.450;19.124;2023-03-01T06:37:57;18.25;;;9.32;;
75730;SDS011;64350;47.450;19.124;2023-03-01T06:40:24;18.30;;;8.35;;
75730;SDS011;64350;47.450;19.124;2023-03-01T06:42:50;15.73;;;8.25;;
75730;SDS011;64350;47.450;19.124;2023-03-01T06:45:17;17.77;;;7.87;;
75730;SDS011;64350;47.450;19.124;2023-03-01T06:47:43;16.27;;;8.07;;
75730;SDS011;64350;47.450;19.124;2023-03-01T06:50:09;17.57;;;8.60;;
75730;SDS011;64350;47.450;19.124;2023-03-01T06:52:35;17.62;;;9.07;;
75730;SDS011;64350;47.450;19.124;2023-03-01T06:55:00;18.63;;;8.90;;
75730;SDS011;64350;47.450;19.124;2023-03-01T06:57:26;18.57;;;8.50;;
75730;SDS011;64350;47.450;19.124;2023-03-01T06:59:52;16.05;;;8.68;;
75730;SDS011;64350;47.450;19.124;2023-03-01T07:02:17;17.10;;;8.13;;
75730;SDS011;64350;47.450;19.124;2023-03-01T07:04:43;17.60;;;9.00;;
75730;SDS011;64350;47.450;19.124;2023-03-01T07:07:08;21.75;;;9.18;;
75730;SDS011;64350;47.450;19.124;2023-03-01T07:09:34;19.57;;;9.37;;
75730;SDS011;64350;47.450;19.124;2023-03-01T07:12:00;18.15;;;9.10;;
75730;SDS011;64350;47.450;19.124;2023-03-01T07:14:25;18.60;;;9.33;;
75730;SDS011;64350;47.450;19.124;2023-03-01T07:16:51;18.47;;;9.23;;
75730;SDS011;64350;47.450;19.124;2023-03-01T07:19:19;18.33;;;8.82;;
75730;SDS011;64350;47.450;19.124;2023-03-01T07:21:45;17.57;;;8.97;;
75730;SDS011;64350;47.450;19.124;2023-03-01T07:24:11;15.68;;;8.57;;
75730;SDS011;64350;47.450;19.124;2023-03-01T07:26:36;18.67;;;9.17;;
75730;SDS011;64350;47.450;19.124;2023-03-01T07:29:02;19.20;;;8.63;;
75730;SDS011;64350;47.450;19.124;2023-03-01T07:31:29;19.62;;;9.52;;
75730;SDS011;64350;47.450;19.124;2023-03-01T07:33:55;18.97;;;9.33;;
75730;SDS011;64350;47.450;19.124;2023-03-01T07:36:20;18.60;;;8.65;;
75730;SDS011;64350;47.450;19.124;2023-03-01T07:38:46;18.27;;;9.38;;
75730;SDS011;64350;47.450;19.124;2023-03-01T07:41:11;16.43;;;8.73;;
75730;SDS011;64350;47.450;19.124;2023-03-01T07:43:37;17.90;;;9.37;;
75730;SDS011;64350;47.450;19.124;2023-03-01T07:46:02;18.80;;;8.37;;
75730;SDS011;64350;47.450;19.124;2023-03-01T07:48:28;18.50;;;9.50;;
75730;SDS011;64350;47.450;19.124;2023-03-01T07:50:54;17.13;;;9.20;;
75730;SDS011;64350;47.450;19.124;2023-03-01T07:53:19;17.00;;;8.98;;
75730;SDS011;64350;47.450;19.124;2023-03-01T07:55:45;16.10;;;8.07;;
75730;SDS011;64350;47.450;19.124;2023-03-01T07:58:10;18.07;;;8.87;;
75730;SDS011;64350;47.450;19.124;2023-03-01T08:00:36;18.10;;;9.50;;
75730;SDS011;64350;47.450;19.124;2023-03-01T08:03:01;20.23;;;9.43;;
75730;SDS011;64350;47.450;19.124;2023-03-01T08:05:28;17.85;;;9.13;;
75730;SDS011;64350;47.450;19.124;2023-03-01T08:07:53;18.08;;;8.70;;
75730;SDS011;64350;47.450;19.124;2023-03-01T08:10:19;16.67;;;8.70;;
75730;SDS011;64350;47.450;19.124;2023-03-01T08:12:44;16.20;;;9.02;;
75730;SDS011;64350;47.450;19.124;2023-03-01T08:15:10;22.30;;;8.93;;
75730;SDS011;64350;47.450;19.124;2023-03-01T08:17:36;19.35;;;8.88;;
75730;SDS011;64350;47.450;19.124;2023-03-01T08:20:01;17.43;;;9.47;;
75730;SDS011;64350;47.450;19.124;2023-03-01T08:22:29;20.42;;;9.43;;
75730;SDS011;64350;47.450;19.124;2023-03-01T08:24:54;15.37;;;8.90;;
75730;SDS011;64350;47.450;19.124;2023-03-01T08:27:20;18.23;;;9.52;;
75730;SDS011;64350;47.450;19.124;2023-03-01T08:29:46;20.03;;;9.70;;
75730;SDS011;64350;47.450;19.124;2023-03-01T08:32:12;15.67;;;8.67;;
75730;SDS011;64350;47.450;19.124;2023-03-01T08:34:37;24.57;;;10.37;;
75730;SDS011;64350;47.450;19.124;2023-03-01T08:37:02;18.77;;;9.83;;
75730;SDS011;64350;47.450;19.124;2023-03-01T08:39:28;16.97;;;9.17;;
75730;SDS011;64350;47.450;19.124;2023-03-01T08:41:53;18.33;;;8.77;;
75730;SDS011;64350;47.450;19.124;2023-03-01T08:44:19;16.73;;;8.50;;
75730;SDS011;64350;47.450;19.124;2023-03-01T08:46:46;16.35;;;9.10;;
75730;SDS011;64350;47.450;19.124;2023-03-01T08:49:13;15.85;;;8.57;;
75730;SDS011;64350;47.450;19.124;2023-03-01T08:51:40;15.17;;;7.73;;
75730;SDS011;64350;47.450;19.124;2023-03-01T08:54:06;17.50;;;8.90;;
75730;SDS011;64350;47.450;19.124;2023-03-01T08:58:54;15.68;;;8.75;;
75730;SDS011;64350;47.450;19.124;2023-03-01T09:01:20;15.53;;;8.37;;
75730;SDS011;64350;47.450;19.124;2023-03-01T09:03:45;16.23;;;9.05;;
75730;SDS011;64350;47.450;19.124;2023-03-01T09:06:11;15.70;;;8.40;;
75730;SDS011;64350;47.450;19.124;2023-03-01T09:08:41;17.65;;;8.63;;
75730;SDS011;64350;47.450;19.124;2023-03-01T09:11:08;16.23;;;8.80;;
75730;SDS011;64350;47.450;19.124;2023-03-01T09:13:35;17.83;;;9.03;;
75730;SDS011;64350;47.450;19.124;2023-03-01T09:16:01;15.05;;;8.40;;
75730;SDS011;64350;47.450;19.124;2023-03-01T09:18:28;14.18;;;7.68;;
75730;SDS011;64350;47.450;19.124;2023-03-01T09:21:00;14.33;;;7.93;;
75730;SDS011;64350;47.450;19.124;2023-03-01T09:23:26;17.27;;;9.00;;
75730;SDS011;64350;47.450;19.124;2023-03-01T09:25:52;17.00;;;9.13;;
75730;SDS011;64350;47.450;19.124;2023-03-01T09:28:17;16.98;;;8.40;;
75730;SDS011;64350;47.450;19.124;2023-03-01T09:30:43;16.63;;;8.83;;
75730;SDS011;64350;47.450;19.124;2023-03-01T09:33:08;16.60;;;8.50;;
75730;SDS011;64350;47.450;19.124;2023-03-01T09:35:39;17.33;;;8.77;;
75730;SDS011;64350;47.450;19.124;2023-03-01T09:38:11;17.15;;;9.32;;
75730;SDS011;64350;47.450;19.124;2023-03-01T09:40:43;17.02;;;9.32;;
75730;SDS011;64350;47.450;19.124;2023-03-01T09:45:44;14.13;;;8.55;;
75730;SDS011;64350;47.450;19.124;2023-03-01T09:48:18;15.50;;;8.65;;
75730;SDS011;64350;47.450;19.124;2023-03-01T09:50:47;14.07;;;8.18;;
75730;SDS011;64350;47.450;19.124;2023-03-01T09:53:13;13.83;;;7.73;;
75730;SDS011;64350;47.450;19.124;2023-03-01T10:04:06;13.40;;;8.38;;
75730;SDS011;64350;47.450;19.124;2023-03-01T10:07:04;12.07;;;7.20;;
75730;SDS011;64350;47.450;19.124;2023-03-01T10:09:33;13.60;;;7.45;;
75730;SDS011;64350;47.450;19.124;2023-03-01T10:11:59;12.85;;;7.00;;
75730;SDS011;64350;47.450;19.124;2023-03-01T10:17:06;12.35;;;6.75;;
75730;SDS011;64350;47.450;19.124;2023-03-01T10:19:41;12.47;;;6.50;;
75730;SDS011;64350;47.450;19.124;2023-03-01T10:24:41;11.02;;;7.05;;
75730;SDS011;64350;47.450;19.124;2023-03-01T10:29:52;14.73;;;6.70;;
75730;SDS011;64350;47.450;19.124;2023-03-01T10:32:24;9.75;;;6.50;;
75730;SDS011;64350;47.450;19.124;2023-03-01T10:34:49;14.45;;;6.80;;
75730;SDS011;64350;47.450;19.124;2023-03-01T10:37:16;10.83;;;6.33;;
75730;SDS011;64350;47.450;19.124;2023-03-01T10:39:57;10.88;;;6.80;;
75730;SDS011;64350;47.450;19.124;2023-03-01T10:42:31;11.13;;;6.77;;
75730;SDS011;64350;47.450;19.124;2023-03-01T10:44:57;10.23;;;6.45;;
75730;SDS011;64350;47.450;19.124;2023-03-01T10:47:24;10.18;;;6.80;;
75730;SDS011;64350;47.450;19.124;2023-03-01T10:49:52;13.13;;;6.68;;
75730;SDS011;64350;47.450;19.124;2023-03-01T10:52:19;12.27;;;6.70;;
75730;SDS011;64350;47.450;19.124;2023-03-01T10:54:54;9.67;;;5.90;;
75730;SDS011;64350;47.450;19.124;2023-03-01T11:02:42;12.00;;;7.12;;
75730;SDS011;64350;47.450;19.124;2023-03-01T11:07:51;10.98;;;5.97;;
75730;SDS011;64350;47.450;19.124;2023-03-01T11:10:29;10.95;;;6.15;;
75730;SDS011;64350;47.450;19.124;2023-03-01T11:13:06;11.70;;;6.75;;
75730;SDS011;64350;47.450;19.124;2023-03-01T11:15:34;10.57;;;5.77;;
75730;SDS011;64350;47.450;19.124;2023-03-01T11:18:00;10.65;;;6.70;;
75730;SDS011;64350;47.450;19.124;2023-03-01T11:20:27;10.90;;;7.07;;
75730;SDS011;64350;47.450;19.124;2023-03-01T11:22:58;11.03;;;6.57;;
75730;SDS011;64350;47.450;19.124;2023-03-01T11:25:29;10.43;;;6.28;;
75730;SDS011;64350;47.450;19.124;2023-03-01T11:28:01;11.65;;;6.70;;
75730;SDS011;64350;47.450;19.124;2023-03-01T11:30:30;11.50;;;6.57;;
75730;SDS011;64350;47.450;19.124;2023-03-01T11:33:20;10.52;;;6.95;;
75730;SDS011;64350;47.450;19.124;2023-03-01T11:35:50;9.83;;;6.60;;
75730;SDS011;64350;47.450;19.124;2023-03-01T11:38:28;10.18;;;5.30;;
75730;SDS011;64350;47.450;19.124;2023-03-01T11:41:00;10.35;;;6.07;;
75730;SDS011;64350;47.450;19.124;2023-03-01T11:49:01;10.40;;;5.67;;
75730;SDS011;64350;47.450;19.124;2023-03-01T12:02:35;10.83;;;5.93;;
75730;SDS011;64350;47.450;19.124;2023-03-01T12:05:39;11.38;;;6.22;;
75730;SDS011;64350;47.450;19.124;2023-03-01T12:10:54;11.82;;;6.53;;
75730;SDS011;64350;47.450;19.124;2023-03-01T12:16:13;11.97;;;5.20;;
75730;SDS011;64350;47.450;19.124;2023-03-01T12:19:01;11.15;;;5.60;;
75730;SDS011;64350;47.450;19.124;2023-03-01T12:29:56;8.77;;;4.77;;
75730;SDS011;64350;47.450;19.124;2023-03-01T12:48:59;9.30;;;4.70;;
75730;SDS011;64350;47.450;19.124;2023-03-01T12:52:00;10.38;;;4.68;;
75730;SDS011;64350;47.450;19.124;2023-03-01T12:54:32;8.20;;;4.40;;
75730;SDS011;64350;47.450;19.124;2023-03-01T12:57:02;7.97;;;4.00;;
75730;SDS011;64350;47.450;19.124;2023-03-01T12:59:34;12.07;;;4.87;;
75730;SDS011;64350;47.450;19.124;2023-03-01T13:04:59;10.15;;;4.05;;
75730;SDS011;64350;47.450;19.124;2023-03-01T13:07:45;8.55;;;4.35;;
75730;SDS011;64350;47.450;19.124;2023-03-01T13:10:24;8.10;;;3.85;;
75730;SDS011;64350;47.450;19.124;2023-03-01T13:17:46;6.45;;;3.20;;
75730;SDS011;64350;47.450;19.124;2023-03-01T13:20:13;7.60;;;4.03;;
75730;SDS011;64350;47.450;19.124;2023-03-01T13:22:40;8.10;;;3.55;;
75730;SDS011;64350;47.450;19.124;2023-03-01T13:25:16;7.80;;;3.90;;
75730;SDS011;64350;47.450;19.124;2023-03-01T13:27:43;10.88;;;3.78;;
75730;SDS011;64350;47.450;19.124;2023-03-01T13:30:37;7.95;;;3.83;;
75730;SDS011;64350;47.450;19.124;2023-03-01T13:35:52;6.75;;;3.67;;
75730;SDS011;64350;47.450;19.124;2023-03-01T13:49:43;6.80;;;3.58;;
75730;SDS011;64350;47.450;19.124;2023-03-01T13:55:00;9.52;;;4.05;;
75730;SDS011;64350;47.450;19.124;2023-03-01T13:57:37;7.65;;;3.72;;
75730;SDS011;64350;47.450;19.124;2023-03-01T14:00:06;7.62;;;3.83;;
75730;SDS011;64350;47.450;19.124;2023-03-01T14:02:32;7.45;;;3.87;;
75730;SDS011;64350;47.450;19.124;2023-03-01T14:04:59;12.13;;;4.67;;
75730;SDS011;64350;47.450;19.124;2023-03-01T14:07:26;10.80;;;4.15;;
75730;SDS011;64350;47.450;19.124;2023-03-01T14:10:00;9.18;;;3.97;;
75730;SDS011;64350;47.450;19.124;2023-03-01T14:12:35;8.43;;;3.20;;
75730;SDS011;64350;47.450;19.124;2023-03-01T14:15:20;9.07;;;3.37;;
75730;SDS011;64350;47.450;19.124;2023-03-01T14:20:26;8.65;;;3.45;;
75730;SDS011;64350;47.450;19.124;2023-03-01T14:22:54;7.97;;;3.70;;
75730;SDS011;64350;47.450;19.124;2023-03-01T14:25:26;9.23;;;3.00;;
75730;SDS011;64350;47.450;19.124;2023-03-01T14:30:48;8.40;;;3.40;;
75730;SDS011;64350;47.450;19.124;2023-03-01T14:33:28;7.75;;;3.75;;
75730;SDS011;64350;47.450;19.124;2023-03-01T14:36:10;8.52;;;3.08;;
75730;SDS011;64350;47.450;19.124;2023-03-01T14:38:40;7.85;;;3.33;;
75730;SDS011;64350;47.450;19.124;2023-03-01T14:43:55;11.17;;;4.10;;
75730;SDS011;64350;47.450;19.124;2023-03-01T14:46:26;7.90;;;4.00;;
75730;SDS011;64350;47.450;19.124;2023-03-01T14:49:12;9.43;;;3.90;;
75730;SDS011;64350;47.450;19.124;2023-03-01T14:51:45;10.50;;;3.72;;
75730;SDS011;64350;47.450;19.124;2023-03-01T14:54:27;7.82;;;3.75;;
75730;SDS011;64350;47.450;19.124;2023-03-01T14:56:58;7.63;;;3.57;;
75730;SDS011;64350;47.450;19.124;2023-03-01T14:59:25;8.00;;;3.70;;
75730;SDS011;64350;47.450;19.124;2023-03-01T15:01:51;10.38;;;3.90;;
75730;SDS011;64350;47.450;19.124;2023-03-01T15:04:18;8.25;;;3.78;;
75730;SDS011;64350;47.450;19.124;2023-03-01T15:06:45;8.63;;;4.03;;
75730;SDS011;64350;47.450;19.124;2023-03-01T15:09:14;9.63;;;3.65;;
75730;SDS011;64350;47.450;19.124;2023-03-01T15:11:43;8.88;;;4.10;;
75730;SDS011;64350;47.450;19.124;2023-03-01T15:14:28;10.27;;;4.10;;
75730;SDS011;64350;47.450;19.124;2023-03-01T15:16:54;9.17;;;3.37;;
75730;SDS011;64350;47.450;19.124;2023-03-01T15:19:28;7.97;;;3.90;;
75730;SDS011;64350;47.450;19.124;2023-03-01T15:21:54;7.03;;;3.00;;
75730;SDS011;64350;47.450;19.124;2023-03-01T15:24:22;7.25;;;3.58;;
75730;SDS011;64350;47.450;19.124;2023-03-01T15:26:55;9.15;;;3.55;;
75730;SDS011;64350;47.450;19.124;2023-03-01T15:29:26;7.63;;;3.97;;
75730;SDS011;64350;47.450;19.124;2023-03-01T15:31:59;9.43;;;3.70;;
75730;SDS011;64350;47.450;19.124;2023-03-01T15:34:29;8.23;;;3.90;;
75730;SDS011;64350;47.450;19.124;2023-03-01T15:36:58;9.77;;;4.37;;
75730;SDS011;64350;47.450;19.124;2023-03-01T15:41:52;7.40;;;4.00;;
75730;SDS011;64350;47.450;19.124;2023-03-01T15:44:27;8.38;;;3.62;;
75730;SDS011;64350;47.450;19.124;2023-03-01T15:46:54;8.77;;;4.05;;
75730;SDS011;64350;47.450;19.124;2023-03-01T15:51:51;8.32;;;4.05;;
75730;SDS011;64350;47.450;19.124;2023-03-01T15:54:20;10.60;;;3.62;;
75730;SDS011;64350;47.450;19.124;2023-03-01T15:56:47;9.93;;;3.83;;
75730;SDS011;64350;47.450;19.124;2023-03-01T15:59:13;7.77;;;3.73;;
75730;SDS011;64350;47.450;19.124;2023-03-01T16:01:39;9.05;;;3.72;;
75730;SDS011;64350;47.450;19.124;2023-03-01T16:04:05;8.50;;;3.40;;
75730;SDS011;64350;47.450;19.124;2023-03-01T16:06:30;9.40;;;3.53;;
75730;SDS011;64350;47.450;19.124;2023-03-01T16:08:56;9.80;;;3.70;;
75730;SDS011;64350;47.450;19.124;2023-03-01T16:11:21;10.00;;;3.83;;
75730;SDS011;64350;47.450;19.124;2023-03-01T16:13:47;10.73;;;3.25;;
75730;SDS011;64350;47.450;19.124;2023-03-01T16:16:15;9.85;;;3.37;;
75730;SDS011;64350;47.450;19.124;2023-03-01T16:18:42;10.07;;;3.95;;
75730;SDS011;64350;47.450;19.124;2023-03-01T16:21:21;8.67;;;3.33;;
75730;SDS011;64350;47.450;19.124;2023-03-01T16:23:50;8.60;;;3.75;;
75730;SDS011;64350;47.450;19.124;2023-03-01T16:26:16;10.60;;;4.53;;
75730;SDS011;64350;47.450;19.124;2023-03-01T16:28:43;11.88;;;4.30;;
75730;SDS011;64350;47.450;19.124;2023-03-01T16:31:09;12.77;;;5.43;;
75730;SDS011;64350;47.450;19.124;2023-03-01T16:33:36;12.87;;;4.40;;
75730;SDS011;64350;47.450;19.124;2023-03-01T16:36:09;11.35;;;5.07;;
75730;SDS011;64350;47.450;19.124;2023-03-01T16:38:35;10.80;;;4.65;;
75730;SDS011;64350;47.450;19.124;2023-03-01T16:41:01;15.87;;;6.60;;
75730;SDS011;64350;47.450;19.124;2023-03-01T16:43:26;12.73;;;6.03;;
75730;SDS011;64350;47.450;19.124;2023-03-01T16:45:52;13.97;;;7.40;;
75730;SDS011;64350;47.450;19.124;2023-03-01T16:48:17;15.30;;;7.63;;
75730;SDS011;64350;47.450;19.124;2023-03-01T16:50:43;15.80;;;6.90;;
75730;SDS011;64350;47.450;19.124;2023-03-01T16:53:08;18.03;;;7.07;;
75730;SDS011;64350;47.450;19.124;2023-03-01T16:55:34;18.17;;;6.70;;
75730;SDS011;64350;47.450;19.124;2023-03-01T16:58:00;21.10;;;7.40;;
75730;SDS011;64350;47.450;19.124;2023-03-01T17:00:25;17.55;;;7.07;;
75730;SDS011;64350;47.450;19.124;2023-03-01T17:02:51;17.30;;;7.60;;
75730;SDS011;64350;47.450;19.124;2023-03-01T17:05:18;16.52;;;7.07;;
75730;SDS011;64350;47.450;19.124;2023-03-01T17:07:45;18.67;;;7.35;;
75730;SDS011;64350;47.450;19.124;2023-03-01T17:10:11;16.33;;;7.87;;
75730;SDS011;64350;47.450;19.124;2023-03-01T17:12:39;15.23;;;7.40;;
75730;SDS011;64350;47.450;19.124;2023-03-01T17:15:06;15.82;;;7.57;;
75730;SDS011;64350;47.450;19.124;2023-03-01T17:17:32;15.30;;;7.83;;
75730;SDS011;64350;47.450;19.124;2023-03-01T17:19:59;19.42;;;7.93;;
75730;SDS011;64350;47.450;19.124;2023-03-01T17:22:24;15.33;;;7.83;;
75730;SDS011;64350;47.450;19.124;2023-03-01T17:24:50;19.52;;;7.20;;
75730;SDS011;64350;47.450;19.124;2023-03-01T17:27:15;20.93;;;7.87;;
75730;SDS011;64350;47.450;19.124;2023-03-01T17:29:41;17.10;;;7.72;;
75730;SDS011;64350;47.450;19.124;2023-03-01T17:32:07;20.30;;;8.00;;
75730;SDS011;64350;47.450;19.124;2023-03-01T17:34:33;16.92;;;8.85;;
75730;SDS011;64350;47.450;19.124;2023-03-01T17:36:59;19.83;;;8.40;;
75730;SDS011;64350;47.450;19.124;2023-03-01T17:39:25;17.65;;;9.15;;
75730;SDS011;64350;47.450;19.124;2023-03-01T17:41:54;20.10;;;9.52;;
75730;SDS011;64350;47.450;19.124;2023-03-01T17:44:38;25.85;;;10.68;;
75730;SDS011;64350;47.450;19.124;2023-03-01T17:47:04;20.40;;;9.87;;
75730;SDS011;64350;47.450;19.124;2023-03-01T17:49:31;21.02;;;9.98;;
75730;SDS011;64350;47.450;19.124;2023-03-01T17:51:57;17.20;;;9.30;;
75730;SDS011;64350;47.450;19.124;2023-03-01T17:54:23;20.08;;;10.00;;
75730;SDS011;64350;47.450;19.124;2023-03-01T17:56:49;23.83;;;9.83;;
75730;SDS011;64350;47.450;19.124;2023-03-01T17:59:14;19.70;;;9.73;;
75730;SDS011;64350;47.450;19.124;2023-03-01T18:01:43;18.10;;;10.15;;
75730;SDS011;64350;47.450;19.124;2023-03-01T18:04:08;19.27;;;10.43;;
75730;SDS011;64350;47.450;19.124;2023-03-01T18:06:35;17.17;;;9.70;;
75730;SDS011;64350;47.450;19.124;2023-03-01T18:09:04;20.62;;;10.48;;
75730;SDS011;64350;47.450;19.124;2023-03-01T18:11:31;19.57;;;10.50;;
75730;SDS011;64350;47.450;19.124;2023-03-01T18:13:58;23.35;;;10.80;;
75730;SDS011;64350;47.450;19.124;2023-03-01T18:16:24;17.98;;;9.27;;
75730;SDS011;64350;47.450;19.124;2023-03-01T18:18:53;19.43;;;10.67;;
75730;SDS011;64350;47.450;19.124;2023-03-01T18:21:19;19.52;;;10.45;;
75730;SDS011;64350;47.450;19.124;2023-03-01T18:23:45;17.10;;;9.15;;
75730;SDS011;64350;47.450;19.124;2023-03-01T18:26:11;20.13;;;9.43;;
75730;SDS011;64350;47.450;19.124;2023-03-01T18:28:37;20.60;;;10.20;;
75730;SDS011;64350;47.450;19.124;2023-03-01T18:31:07;19.90;;;10.38;;
75730;SDS011;64350;47.450;19.124;2023-03-01T18:33:35;20.27;;;9.57;;
75730;SDS011;64350;47.450;19.124;2023-03-01T18:36:03;26.13;;;9.50;;
75730;SDS011;64350;47.450;19.124;2023-03-01T18:38:29;20.92;;;9.85;;
75730;SDS011;64350;47.450;19.124;2023-03-01T18:40:55;23.75;;;9.55;;
75730;SDS011;64350;47.450;19.124;2023-03-01T18:43:21;18.00;;;10.00;;
75730;SDS011;64350;47.450;19.124;2023-03-01T18:45:48;20.80;;;9.75;;
75730;SDS011;64350;47.450;19.124;2023-03-01T18:48:16;20.67;;;10.30;;
75730;SDS011;64350;47.450;19.124;2023-03-01T18:50:41;22.25;;;9.52;;
75730;SDS011;64350;47.450;19.124;2023-03-01T18:53:22;22.57;;;9.13;;
75730;SDS011;64350;47.450;19.124;2023-03-01T18:55:57;20.25;;;9.13;;
75730;SDS011;64350;47.450;19.124;2023-03-01T18:58:26;21.05;;;9.77;;
75730;SDS011;64350;47.450;19.124;2023-03-01T19:00:51;16.77;;;8.73;;
75730;SDS011;64350;47.450;19.124;2023-03-01T19:03:17;28.05;;;10.25;;
75730;SDS011;64350;47.450;19.124;2023-03-01T19:05:42;18.77;;;9.03;;
75730;SDS011;64350;47.450;19.124;2023-03-01T19:08:07;21.27;;;9.60;;
75730;SDS011;64350;47.450;19.124;2023-03-01T19:10:33;23.07;;;10.33;;
75730;SDS011;64350;47.450;19.124;2023-03-01T19:13:01;21.62;;;9.10;;
75730;SDS011;64350;47.450;19.124;2023-03-01T19:15:27;20.70;;;9.73;;
75730;SDS011;64350;47.450;19.124;2023-03-01T19:17:52;17.95;;;8.70;;
75730;SDS011;64350;47.450;19.124;2023-03-01T19:20:18;19.03;;;9.27;;
75730;SDS011;64350;47.450;19.124;2023-03-01T19:22:43;21.37;;;9.40;;
75730;SDS011;64350;47.450;19.124;2023-03-01T19:25:08;22.73;;;9.63;;
75730;SDS011;64350;47.450;19.124;2023-03-01T19:27:34;25.05;;;10.90;;
75730;SDS011;64350;47.450;19.124;2023-03-01T19:29:59;20.07;;;10.27;;
75730;SDS011;64350;47.450;19.124;2023-03-01T19:32:25;22.53;;;10.07;;
75730;SDS011;64350;47.450;19.124;2023-03-01T19:34:53;20.85;;;9.35;;
75730;SDS011;64350;47.450;19.124;2023-03-01T19:37:19;19.00;;;9.97;;
75730;SDS011;64350;47.450;19.124;2023-03-01T19:39:44;17.57;;;8.90;;
75730;SDS011;64350;47.450;19.124;2023-03-01T19:42:11;21.55;;;9.90;;
75730;SDS011;64350;47.450;19.124;2023-03-01T19:44:39;20.12;;;9.35;;
75730;SDS011;64350;47.450;19.124;2023-03-01T19:47:05;19.50;;;9.63;;
75730;SDS011;64350;47.450;19.124;2023-03-01T19:49:30;21.97;;;9.73;;
75730;SDS011;64350;47.450;19.124;2023-03-01T19:51:56;19.80;;;9.32;;
75730;SDS011;64350;47.450;19.124;2023-03-01T19:54:25;19.97;;;9.03;;
75730;SDS011;64350;47.450;19.124;2023-03-01T19:57:08;20.85;;;9.45;;
75730;SDS011;64350;47.450;19.124;2023-03-01T19:59:36;19.50;;;9.63;;
75730;SDS011;64350;47.450;19.124;2023-03-01T20:02:09;18.30;;;8.57;;
75730;SDS011;64350;47.450;19.124;2023-03-01T20:04:43;21.40;;;11.07;;
75730;SDS011;64350;47.450;19.124;2023-03-01T20:07:09;22.13;;;10.50;;
75730;SDS011;64350;47.450;19.124;2023-03-01T20:09:37;21.27;;;10.27;;
75730;SDS011;64350;47.450;19.124;2023-03-01T20:12:06;20.65;;;9.75;;
75730;SDS011;64350;47.450;19.124;2023-03-01T20:14:33;22.80;;;10.65;;
75730;SDS011;64350;47.450;19.124;2023-03-01T20:16:58;21.57;;;9.47;;
75730;SDS011;64350;47.450;19.124;2023-03-01T20:19:23;29.77;;;11.55;;
75730;SDS011;64350;47.450;19.124;2023-03-01T20:21:49;23.40;;;11.33;;
75730;SDS011;64350;47.450;19.124;2023-03-01T20:24:14;28.00;;;11.87;;
75730;SDS011;64350;47.450;19.124;2023-03-01T20:26:40;25.47;;;12.40;;
75730;SDS011;64350;47.450;19.124;2023-03-01T20:29:05;23.30;;;12.60;;
75730;SDS011;64350;47.450;19.124;2023-03-01T20:31:31;24.12;;;11.50;;
75730;SDS011;64350;47.450;19.124;2023-03-01T20:33:57;28.13;;;12.67;;
75730;SDS011;64350;47.450;19.124;2023-03-01T20:36:23;27.10;;;13.38;;
75730;SDS011;64350;47.450;19.124;2023-03-01T20:38:52;26.40;;;12.05;;
75730;SDS011;64350;47.450;19.124;2023-03-01T20:41:21;27.77;;;13.45;;
75730;SDS011;64350;47.450;19.124;2023-03-01T20:43:50;27.63;;;12.37;;
75730;SDS011;64350;47.450;19.124;2023-03-01T20:46:23;27.77;;;13.55;;
75730;SDS011;64350;47.450;19.124;2023-03-01T20:48:50;27.55;;;13.15;;
75730;SDS011;64350;47.450;19.124;2023-03-01T20:51:28;24.87;;;12.27;;
75730;SDS011;64350;47.450;19.124;2023-03-01T20:53:56;31.48;;;13.65;;
75730;SDS011;64350;47.450;19.124;2023-03-01T21:00:08;25.52;;;12.25;;
75730;SDS011;64350;47.450;19.124;2023-03-01T21:02:36;30.62;;;12.27;;
75730;SDS011;64350;47.450;19.124;2023-03-01T21:05:03;26.23;;;12.77;;
75730;SDS011;64350;47.450;19.124;2023-03-01T21:07:29;34.45;;;13.18;;
75730;SDS011;64350;47.450;19.124;2023-03-01T21:09:55;31.73;;;15.30;;
75730;SDS011;64350;47.450;19.124;2023-03-01T21:12:20;36.67;;;14.55;;
75730;SDS011;64350;47.450;19.124;2023-03-01T21:14:46;30.23;;;13.63;;
75730;SDS011;64350;47.450;19.124;2023-03-01T21:17:14;42.10;;;16.23;;
75730;SDS011;64350;47.450;19.124;2023-03-01T21:19:42;37.10;;;13.95;;
75730;SDS011;64350;47.450;19.124;2023-03-01T21:22:11;37.87;;;15.27;;
75730;SDS011;64350;47.450;19.124;2023-03-01T21:24:38;46.28;;;16.55;;
75730;SDS011;64350;47.450;19.124;2023-03-01T21:27:03;40.10;;;15.33;;
75730;SDS011;64350;47.450;19.124;2023-03-01T21:29:35;41.30;;;16.00;;
75730;SDS011;64350;47.450;19.124;2023-03-01T21:32:01;36.60;;;15.30;;
75730;SDS011;64350;47.450;19.124;2023-03-01T21:34:27;45.53;;;15.93;;
75730;SDS011;64350;47.450;19.124;2023-03-01T21:36:58;40.65;;;16.05;;
75730;SDS011;64350;47.450;19.124;2023-03-01T21:39:25;39.40;;;15.23;;
75730;SDS011;64350;47.450;19.124;2023-03-01T21:41:53;37.47;;;15.68;;
75730;SDS011;64350;47.450;19.124;2023-03-01T21:44:23;38.73;;;14.27;;
75730;SDS011;64350;47.450;19.124;2023-03-01T21:46:49;44.10;;;15.23;;